Strona główna
METAR-TAF:

METAR-TAF

Lotnisko :

Port lotniczy Tarakan-Juwata

Tarakan, Indonezja

Szerokość geograficzna: 03-19-36N, Długość geograficzna: 117-33-56E, wysokość: 6 m

Aktualna obserwacja pogody

Raport powstał 49 minut temu, godzina 21:00 UTC
Cisza
Temperatura 25°C
Wilgotność 94%
Ciśnienie 1011 hPa
Widzialność: 8000 m
Mało chmury na wysokości 1500 ft

METAR: WAQQ 102100Z 00000KT 8000 FEW015 25/24 Q1011

czas: 04:49 (21:49 UTC)

Prognoza

Raport powstał 4 godziny i 49 minut temu, godzina 17:00 UTC
Prognoza ważna od 10 godzina 18 UTC do 11 godzina 06 UTC
Wiatr 2 kt od północno-północny wschód
Widzialność: 8000 m
Rozproszone chmury na wysokości 1500 ft
Przejściowo
od 10 godzina 21 UTC do 10 godzina 24 UTC
Mało chmury na wysokości 1500 ft, Cumulusy wypiętrznone.

TAF: WAQQ 101700Z 1018/1106 03002KT 8000 SCT015 TEMPO 1021/1024 FEW015TCU

Obserwacja i prognoza pogody dla ponad 4000 lotnisk (raport METAR i TAF).

Dostępne stacje oznaczono żółtymi i czerwonymi punktami na mapie.

Najedź kursorem aby zobaczyć nazwę stacji.

Kliknij aby zobaczyć obserwacje i prognozy pogody.

Aby zmienić mapę: kliknij na zielony przycisk z czarnym krzyżykiem, aby powiększyć; na zielony przycisk z myślnikiem, aby pomniejszyć; na zielone strzałki, aby przejść do map sąsiednich.


METAR-TAF: